Time;durP1;ratioP1;P1;durP2;ratioP2;P2;SDS_P1;SDS_P2;PMS_P1;PMS_P2;Temp;Humidity;BMP_temperature;BMP_pressure;BME280_temperature;BME280_humidity;BME280_pressure;Samples;Min_cycle;Max_cycle;Signal;HPM_P1;HPM_P2
2021/03/05 00:00:57;;;;;;;12.38;8.65;;;6.90;99.90;;;;;;5029790;28;20232;-81
2021/03/05 00:03:23;;;;;;;12.90;9.50;;;6.80;99.90;;;;;;5034108;28;20235;-81
2021/03/05 00:05:50;;;;;;;13.40;10.02;;;6.80;99.90;;;;;;5048092;28;20354;-81
2021/03/05 00:08:16;;;;;;;11.75;8.98;;;6.80;99.90;;;;;;5046485;28;20630;-80
2021/03/05 00:10:44;;;;;;;11.25;9.07;;;6.90;99.90;;;;;;5029930;28;20201;-81
2021/03/05 00:13:12;;;;;;;16.98;13.27;;;6.90;99.90;;;;;;5030433;28;20651;-81
2021/03/05 00:15:42;;;;;;;18.52;15.13;;;6.70;99.90;;;;;;5049391;28;20232;-80
2021/03/05 00:18:09;;;;;;;15.57;13.05;;;6.60;99.90;;;;;;5048766;28;20246;-80
2021/03/05 00:20:39;;;;;;;16.35;13.45;;;6.30;99.90;;;;;;5057618;28;20199;-80
2021/03/05 00:23:05;;;;;;;16.67;13.05;;;6.00;99.90;;;;;;5068547;28;20212;-80
2021/03/05 00:25:32;;;;;;;19.75;15.20;;;6.10;99.90;;;;;;5029705;28;20291;-80
2021/03/05 00:27:59;;;;;;;19.55;14.50;;;6.30;99.90;;;;;;5029297;28;20229;-80
2021/03/05 00:30:26;;;;;;;19.73;16.65;;;6.40;99.90;;;;;;5047832;28;20669;-80
2021/03/05 00:32:53;;;;;;;22.85;17.10;;;6.30;99.90;;;;;;5048318;28;20208;-80
2021/03/05 00:35:21;;;;;;;23.05;17.85;;;6.00;99.90;;;;;;5052395;28;20306;-80
2021/03/05 00:37:47;;;;;;;27.52;19.13;;;5.90;99.90;;;;;;5039401;28;20254;-80
2021/03/05 00:40:15;;;;;;;29.05;18.63;;;5.80;99.90;;;;;;5053448;28;20214;-81
2021/03/05 00:42:44;;;;;;;24.38;17.42;;;5.80;99.90;;;;;;5035121;28;20710;-80
2021/03/05 00:45:13;;;;;;;24.13;17.50;;;5.40;99.90;;;;;;5033128;28;20682;-80
2021/03/05 00:47:39;;;;;;;22.35;17.42;;;5.30;99.90;;;;;;5048687;28;20523;-80
2021/03/05 00:50:07;;;;;;;26.35;18.17;;;5.40;99.90;;;;;;5052957;28;20246;-80
2021/03/05 00:52:34;;;;;;;27.95;20.13;;;5.40;99.90;;;;;;5037742;28;20212;-80
2021/03/05 00:55:00;;;;;;;26.00;19.10;;;5.50;99.90;;;;;;5033887;28;20686;-80
2021/03/05 00:57:27;;;;;;;27.58;19.15;;;5.60;99.90;;;;;;5032588;28;20248;-81
2021/03/05 00:59:53;;;;;;;30.85;20.35;;;5.30;99.80;;;;;;5041065;28;20257;-81
2021/03/05 01:02:20;;;;;;;24.73;18.67;;;5.30;99.90;;;;;;5052763;28;20208;-81
2021/03/05 01:04:47;;;;;;;25.70;17.65;;;5.10;99.90;;;;;;5043347;28;20525;-81
2021/03/05 01:07:13;;;;;;;26.00;18.17;;;4.90;99.90;;;;;;5032708;28;20223;-81
2021/03/05 01:09:40;;;;;;;31.35;18.80;;;5.00;99.90;;;;;;5040324;28;20200;-80
2021/03/05 01:12:08;;;;;;;28.83;19.60;;;5.00;99.90;;;;;;5052872;28;20264;-80
2021/03/05 01:14:34;;;;;;;27.67;18.83;;;4.90;99.90;;;;;;5041343;28;20263;-80
2021/03/05 01:17:00;;;;;;;34.47;20.98;;;4.80;99.90;;;;;;5035304;28;20208;-80
2021/03/05 01:19:28;;;;;;;26.20;18.85;;;4.90;99.90;;;;;;5032546;28;20200;-80
2021/03/05 01:21:55;;;;;;;31.02;21.15;;;4.70;99.90;;;;;;5062144;28;20223;-80
2021/03/05 01:24:21;;;;;;;33.45;21.80;;;4.80;99.90;;;;;;5051363;28;20212;-80
2021/03/05 01:26:48;;;;;;;28.00;19.17;;;4.70;99.90;;;;;;5041946;28;20205;-80
2021/03/05 01:29:14;;;;;;;30.38;18.50;;;4.60;99.90;;;;;;5032568;28;20296;-80
2021/03/05 01:31:41;;;;;;;33.95;21.00;;;4.40;99.90;;;;;;5033062;28;20247;-81
2021/03/05 01:34:07;;;;;;;34.90;21.55;;;4.30;99.90;;;;;;5031851;28;20243;-80
2021/03/05 01:36:35;;;;;;;37.80;23.52;;;4.30;99.90;;;;;;5042066;28;20314;-80
2021/03/05 01:39:01;;;;;;;34.20;20.92;;;4.30;99.90;;;;;;5051936;28;20332;-80
2021/03/05 01:41:28;;;;;;;30.75;21.08;;;4.40;99.90;;;;;;5042668;28;20283;-80
2021/03/05 01:43:54;;;;;;;34.35;21.08;;;4.30;99.90;;;;;;5031497;28;20307;-80
2021/03/05 01:46:21;;;;;;;35.53;21.33;;;4.20;99.90;;;;;;5038545;28;20849;-80
2021/03/05 01:48:48;;;;;;;34.45;20.10;;;4.00;99.90;;;;;;5051844;28;20293;-80
2021/03/05 01:51:17;;;;;;;31.70;20.33;;;4.10;99.90;;;;;;5036020;28;20236;-81
2021/03/05 01:53:45;;;;;;;34.25;20.95;;;4.20;99.90;;;;;;5030832;28;20311;-81
2021/03/05 01:56:33;;;;;;;32.25;21.00;;;4.40;99.90;;;;;;5046354;28;20235;-80
2021/03/05 01:59:00;;;;;;;30.52;20.98;;;4.30;99.90;;;;;;5050799;28;20290;-81
2021/03/05 02:01:27;;;;;;;23.08;17.42;;;4.20;99.90;;;;;;5034879;28;20292;-79
2021/03/05 02:03:54;;;;;;;27.15;16.48;;;4.30;99.90;;;;;;5030949;28;20704;-79
2021/03/05 02:06:22;;;;;;;24.25;18.10;;;4.10;99.90;;;;;;5045973;28;20208;-79
2021/03/05 02:08:51;;;;;;;25.77;17.58;;;4.00;99.90;;;;;;5048182;28;20201;-79
2021/03/05 02:11:20;;;;;;;34.80;20.33;;;3.90;99.90;;;;;;5055767;28;20579;-78
2021/03/05 02:13:48;;;;;;;31.85;20.15;;;3.90;99.90;;;;;;5052985;28;20278;-79
2021/03/05 02:16:29;;;;;;;29.25;19.17;;;4.00;99.90;;;;;;5058436;28;20214;-79
2021/03/05 02:19:08;;;;;;;32.97;20.38;;;3.90;99.90;;;;;;5061770;28;20203;-79
2021/03/05 02:22:07;;;;;;;29.05;19.75;;;4.00;99.90;;;;;;5052273;28;20212;-79
2021/03/05 02:24:56;;;;;;;32.63;21.08;;;4.10;99.90;;;;;;5061907;28;20212;-79
2021/03/05 02:28:09;;;;;;;35.45;22.58;;;4.00;99.90;;;;;;5051325;28;20608;-79
2021/03/05 02:31:02;;;;;;;32.25;21.88;;;4.00;99.90;;;;;;5004555;28;20203;-79
2021/03/05 02:33:36;;;;;;;38.58;24.00;;;4.00;99.90;;;;;;5068104;28;20205;-79
2021/03/05 02:36:08;;;;;;;43.25;23.85;;;4.30;99.90;;;;;;5051141;28;20689;-79
2021/03/05 02:38:37;;;;;;;33.17;22.88;;;4.00;99.90;;;;;;5049076;28;20565;-79
2021/03/05 02:41:06;;;;;;;35.65;22.27;;;3.80;99.90;;;;;;5030961;28;20220;-79
2021/03/05 02:43:35;;;;;;;32.15;20.55;;;3.90;99.90;;;;;;5030385;28;20223;-78
2021/03/05 02:46:06;;;;;;;33.75;21.13;;;4.00;99.90;;;;;;5050830;28;20257;-79
2021/03/05 02:48:39;;;;;;;34.03;21.63;;;4.00;99.90;;;;;;5051190;28;20273;-79
2021/03/05 02:51:08;;;;;;;31.17;21.42;;;4.20;99.90;;;;;;5050929;28;20239;-79
2021/03/05 02:53:38;;;;;;;37.45;22.83;;;4.00;99.90;;;;;;5039991;28;20200;-79
2021/03/05 02:56:13;;;;;;;30.55;20.63;;;3.90;99.90;;;;;;5030498;28;20288;-79
2021/03/05 02:58:44;;;;;;;34.70;21.13;;;3.90;99.90;;;;;;5039420;28;20298;-79
2021/03/05 03:01:14;;;;;;;35.33;20.42;;;4.00;99.90;;;;;;5050699;28;20287;-79
2021/03/05 03:03:43;;;;;;;34.40;21.30;;;4.10;99.90;;;;;;5040193;28;20193;-79
2021/03/05 03:06:11;;;;;;;35.25;21.20;;;4.20;99.90;;;;;;5030207;28;20643;-79
2021/03/05 03:08:39;;;;;;;35.75;20.33;;;4.00;99.90;;;;;;5042678;28;20196;-79
2021/03/05 03:11:07;;;;;;;30.92;20.00;;;3.90;99.90;;;;;;5050496;28;20204;-79
2021/03/05 03:13:35;;;;;;;33.72;20.50;;;4.00;99.90;;;;;;5032701;28;20286;-79
2021/03/05 03:16:02;;;;;;;34.70;21.45;;;3.90;99.90;;;;;;5030533;28;20634;-79
2021/03/05 03:18:31;;;;;;;32.75;20.20;;;3.80;99.90;;;;;;5045681;28;20569;-81
2021/03/05 03:21:00;;;;;;;34.50;21.80;;;3.60;99.90;;;;;;5050033;28;20210;-80
2021/03/05 03:23:27;;;;;;;36.08;21.55;;;3.80;99.90;;;;;;5048192;28;20295;-79
2021/03/05 03:25:54;;;;;;;31.23;22.05;;;3.70;99.90;;;;;;5050144;28;20204;-79
2021/03/05 03:28:20;;;;;;;27.10;20.00;;;3.90;99.90;;;;;;5037083;28;20228;-79
2021/03/05 03:30:47;;;;;;;32.95;20.95;;;3.80;99.90;;;;;;5030481;28;20212;-79
2021/03/05 03:33:14;;;;;;;34.40;21.80;;;3.90;99.90;;;;;;5040745;28;20204;-79
2021/03/05 03:35:42;;;;;;;31.83;21.38;;;3.70;99.90;;;;;;5049682;28;20277;-81
2021/03/05 03:38:10;;;;;;;35.35;20.58;;;3.80;99.90;;;;;;5044408;28;20207;-80
2021/03/05 03:40:36;;;;;;;32.83;21.38;;;3.60;99.90;;;;;;5049480;28;20677;-79
2021/03/05 03:43:03;;;;;;;36.78;22.48;;;3.50;99.90;;;;;;5034417;28;20196;-80
2021/03/05 03:45:33;;;;;;;30.23;20.15;;;3.70;99.90;;;;;;5030025;28;20200;-79
2021/03/05 03:48:01;;;;;;;36.50;21.77;;;3.90;99.90;;;;;;5042459;28;20196;-79
2021/03/05 03:50:31;;;;;;;28.95;20.45;;;3.70;99.90;;;;;;5049863;28;20207;-79
2021/03/05 03:53:03;;;;;;;31.92;20.67;;;3.70;99.90;;;;;;5036819;28;20208;-80
2021/03/05 03:55:30;;;;;;;29.35;18.58;;;3.80;99.90;;;;;;5029843;28;20231;-80
2021/03/05 03:57:57;;;;;;;26.27;18.65;;;3.60;99.90;;;;;;5041003;28;20321;-80
2021/03/05 04:00:25;;;;;;;27.30;19.00;;;3.50;99.90;;;;;;5048992;28;20200;-80
2021/03/05 04:02:53;;;;;;;26.92;18.83;;;3.60;99.90;;;;;;5038559;28;20556;-79
2021/03/05 04:05:23;;;;;;;27.10;18.00;;;3.70;99.90;;;;;;5030048;28;20208;-79
2021/03/05 04:07:51;;;;;;;27.10;19.15;;;3.60;99.90;;;;;;5034531;28;20201;-79
2021/03/05 04:10:19;;;;;;;25.23;16.33;;;3.50;99.90;;;;;;5042941;28;20582;-80
2021/03/05 04:12:47;;;;;;;25.45;16.63;;;3.40;99.90;;;;;;5052980;28;20242;-82
2021/03/05 04:15:16;;;;;;;23.70;16.88;;;3.30;99.90;;;;;;5044732;28;20254;-80
2021/03/05 04:17:43;;;;;;;16.30;12.88;;;3.30;99.90;;;;;;5033787;28;20291;-79
2021/03/05 04:20:11;;;;;;;23.40;16.02;;;3.10;99.90;;;;;;5040253;28;20300;-79
2021/03/05 04:22:38;;;;;;;27.85;17.08;;;3.30;99.90;;;;;;5064381;28;20278;-79
2021/03/05 04:25:05;;;;;;;23.27;15.57;;;3.30;99.90;;;;;;5056658;28;20231;-80
2021/03/05 04:27:33;;;;;;;20.15;14.45;;;3.40;99.90;;;;;;5039660;28;20232;-79
2021/03/05 04:29:59;;;;;;;23.95;16.08;;;3.30;99.90;;;;;;5033178;28;20278;-82
2021/03/05 04:32:25;;;;;;;22.42;15.43;;;3.30;99.90;;;;;;5044755;28;20681;-81
2021/03/05 04:34:52;;;;;;;20.52;15.50;;;3.20;99.90;;;;;;5052893;28;20292;-80
2021/03/05 04:37:18;;;;;;;22.30;15.38;;;3.20;99.90;;;;;;5043064;28;20303;-79
2021/03/05 04:39:44;;;;;;;20.30;14.13;;;3.10;99.90;;;;;;5035628;28;20620;-80
2021/03/05 04:42:11;;;;;;;24.30;15.32;;;3.20;99.90;;;;;;5052772;28;20228;-80
2021/03/05 04:44:38;;;;;;;18.45;14.38;;;3.30;99.90;;;;;;5051437;28;20204;-80
2021/03/05 04:47:04;;;;;;;23.95;14.50;;;3.20;99.90;;;;;;5033140;28;20212;-81
2021/03/05 04:49:30;;;;;;;21.40;14.88;;;3.20;99.90;;;;;;5033079;28;20239;-81
2021/03/05 04:51:57;;;;;;;24.02;15.02;;;3.20;99.90;;;;;;5052049;28;20265;-81
2021/03/05 04:54:24;;;;;;;23.10;15.55;;;3.10;99.90;;;;;;5052003;28;21027;-81
2021/03/05 04:56:50;;;;;;;20.33;15.27;;;3.30;99.90;;;;;;5034236;28;20303;-81
2021/03/05 04:59:16;;;;;;;23.50;15.10;;;3.30;99.90;;;;;;5032140;28;20232;-82
2021/03/05 05:01:44;;;;;;;22.48;14.73;;;3.50;99.90;;;;;;5048733;28;20208;-82
2021/03/05 05:04:10;;;;;;;17.85;14.35;;;3.50;99.90;;;;;;5052082;28;20222;-82
2021/03/05 05:06:36;;;;;;;20.42;14.45;;;3.60;99.90;;;;;;5037645;28;20204;-82
2021/03/05 05:09:03;;;;;;;21.52;14.75;;;3.50;99.90;;;;;;5032578;28;20236;-82
2021/03/05 05:11:29;;;;;;;21.55;16.65;;;3.50;99.90;;;;;;5045086;28;20583;-82
2021/03/05 05:13:56;;;;;;;19.20;13.48;;;3.30;99.90;;;;;;5050706;28;20204;-82
2021/03/05 05:16:25;;;;;;;22.92;15.38;;;3.30;99.90;;;;;;5032563;28;20298;-81
2021/03/05 05:18:52;;;;;;;21.27;15.25;;;3.40;99.90;;;;;;5032663;28;20573;-82
2021/03/05 05:21:19;;;;;;;17.73;13.20;;;3.50;99.90;;;;;;5032843;28;20303;-81
2021/03/05 05:23:45;;;;;;;18.90;14.32;;;3.40;99.90;;;;;;5043882;28;20216;-82
2021/03/05 05:26:13;;;;;;;20.83;13.70;;;3.40;99.90;;;;;;5031892;28;20204;-82
2021/03/05 05:28:39;;;;;;;21.45;13.82;;;3.40;99.90;;;;;;5049344;28;20562;-82
2021/03/05 05:31:06;;;;;;;20.45;14.93;;;3.30;99.90;;;;;;5038768;28;20207;-82
2021/03/05 05:33:32;;;;;;;18.40;12.27;;;3.50;99.90;;;;;;5051857;28;20243;-82
2021/03/05 05:35:59;;;;;;;20.27;12.90;;;3.60;99.90;;;;;;5039603;28;20311;-83
2021/03/05 05:38:26;;;;;;;18.23;12.50;;;3.50;99.90;;;;;;5032454;28;20270;-83
2021/03/05 05:40:52;;;;;;;17.70;12.90;;;3.50;99.90;;;;;;5042735;28;20214;-82
2021/03/05 05:43:18;;;;;;;19.70;12.20;;;3.40;99.90;;;;;;5051239;28;20200;-83
2021/03/05 05:45:45;;;;;;;21.17;12.10;;;3.50;99.90;;;;;;5042950;28;20288;-83
2021/03/05 05:48:13;;;;;;;19.80;12.45;;;3.40;99.90;;;;;;5039533;28;20200;-83
2021/03/05 05:50:42;;;;;;;19.35;12.25;;;3.60;99.90;;;;;;5051864;28;20212;-83
2021/03/05 05:53:09;;;;;;;18.45;13.27;;;3.40;99.90;;;;;;5044269;28;20283;-82
2021/03/05 05:55:36;;;;;;;18.45;12.20;;;3.40;99.90;;;;;;5031867;28;20228;-83
2021/03/05 05:58:03;;;;;;;17.38;14.50;;;3.50;99.90;;;;;;5032380;28;20221;-83
2021/03/05 06:00:29;;;;;;;18.80;12.88;;;3.30;99.90;;;;;;5031724;28;20613;-83
2021/03/05 06:02:56;;;;;;;18.58;11.45;;;3.40;99.90;;;;;;5034575;28;20227;-83
2021/03/05 06:05:23;;;;;;;16.75;11.85;;;3.40;99.90;;;;;;5048798;28;20231;-82
2021/03/05 06:07:50;;;;;;;17.55;11.65;;;3.70;99.90;;;;;;5031136;28;20720;-83
2021/03/05 06:10:18;;;;;;;17.85;11.52;;;4.10;99.90;;;;;;5043754;28;20204;-83
2021/03/05 06:12:46;;;;;;;17.45;12.98;;;4.10;99.90;;;;;;5045912;28;20204;-83
2021/03/05 06:15:14;;;;;;;17.60;12.00;;;3.70;99.90;;;;;;5031393;28;20273;-83
2021/03/05 06:17:42;;;;;;;14.95;11.30;;;3.70;99.90;;;;;;5044378;28;20615;-83
2021/03/05 06:20:10;;;;;;;15.43;11.48;;;3.60;99.90;;;;;;5046049;28;20200;-83
2021/03/05 06:22:36;;;;;;;19.00;12.00;;;3.80;99.90;;;;;;5053086;28;20745;-84
2021/03/05 06:25:04;;;;;;;15.00;11.25;;;3.90;99.90;;;;;;5049936;28;20250;-85
2021/03/05 06:27:31;;;;;;;15.60;11.02;;;3.90;99.90;;;;;;5045065;28;20200;-84
2021/03/05 06:29:58;;;;;;;17.38;11.45;;;3.60;99.90;;;;;;5049360;28;20326;-84
2021/03/05 06:32:36;;;;;;;17.15;11.70;;;3.50;99.90;;;;;;5048083;28;20203;-84
2021/03/05 06:35:04;;;;;;;20.42;12.40;;;3.50;99.90;;;;;;5041819;28;20216;-85
2021/03/05 06:37:44;;;;;;;17.45;11.95;;;3.60;99.90;;;;;;5042236;28;20208;-84
2021/03/05 06:40:11;;;;;;;21.90;11.55;;;3.70;99.90;;;;;;5048181;28;20206;-84
2021/03/05 06:42:49;;;;;;;19.52;12.57;;;3.70;99.90;;;;;;5049295;28;20223;-85
2021/03/05 06:45:16;;;;;;;18.20;13.23;;;3.70;99.90;;;;;;5051203;28;20294;-85
2021/03/05 06:48:04;;;;;;;20.13;12.98;;;3.70;99.90;;;;;;5035286;28;20199;-83
2021/03/05 06:50:33;;;;;;;19.88;13.13;;;3.70;99.90;;;;;;5054148;28;20265;-84
2021/03/05 06:52:59;;;;;;;18.75;14.05;;;3.40;99.90;;;;;;5070799;28;20309;-84
2021/03/05 06:55:26;;;;;;;19.33;12.02;;;3.50;99.90;;;;;;5063456;28;20212;-84
2021/03/05 06:57:54;;;;;;;18.45;12.85;;;3.50;99.90;;;;;;5034362;28;20292;-83
2021/03/05 07:00:23;;;;;;;18.42;11.70;;;3.40;99.90;;;;;;5038018;28;20731;-84
2021/03/05 07:02:51;;;;;;;18.08;10.55;;;3.30;99.90;;;;;;5053658;28;20279;-86
2021/03/05 07:05:17;;;;;;;15.95;11.43;;;3.50;99.90;;;;;;5050552;28;20197;-86
2021/03/05 07:07:45;;;;;;;18.70;12.80;;;3.30;99.90;;;;;;5035521;28;20231;-86
2021/03/05 07:10:13;;;;;;;18.00;12.52;;;3.40;99.90;;;;;;5035219;28;20201;-86
2021/03/05 07:13:00;;;;;;;16.80;11.90;;;3.50;99.90;;;;;;5034848;28;20662;-86
2021/03/05 07:15:27;;;;;;;17.77;11.77;;;3.30;99.90;;;;;;5053673;28;20241;-85
2021/03/05 07:17:53;;;;;;;15.98;10.38;;;3.50;99.90;;;;;;5055557;28;21041;-86
2021/03/05 07:20:20;;;;;;;16.92;11.68;;;3.20;99.90;;;;;;5065259;28;20211;-85
2021/03/05 07:22:48;;;;;;;22.33;11.93;;;3.10;99.90;;;;;;5057940;28;20211;-85
2021/03/05 07:25:17;;;;;;;21.95;13.68;;;3.20;99.90;;;;;;5070742;28;20206;-86
2021/03/05 07:27:46;;;;;;;23.13;12.48;;;3.40;99.90;;;;;;5066222;28;20629;-86
2021/03/05 07:30:18;;;;;;;19.83;11.88;;;3.40;99.90;;;;;;5058325;28;20205;-86
2021/03/05 07:32:47;;;;;;;18.50;12.00;;;3.60;99.90;;;;;;5054696;28;20204;-88
2021/03/05 07:35:20;;;;;;;19.75;13.63;;;3.70;99.90;;;;;;5053925;28;20306;-85
2021/03/05 07:37:50;;;;;;;17.88;12.52;;;3.40;99.90;;;;;;5052841;28;20412;-86
2021/03/05 07:40:18;;;;;;;17.13;11.40;;;3.50;99.90;;;;;;5053973;28;20211;-86
2021/03/05 07:42:45;;;;;;;19.92;13.90;;;3.60;99.90;;;;;;5036138;28;20200;-85
2021/03/05 07:45:14;;;;;;;20.70;13.27;;;3.70;99.90;;;;;;5040095;28;20196;-85
2021/03/05 07:47:45;;;;;;;21.25;12.77;;;3.70;99.90;;;;;;5056455;28;20241;-86
2021/03/05 07:50:14;;;;;;;18.90;12.45;;;3.80;99.90;;;;;;5058969;28;20196;-86
2021/03/05 07:52:41;;;;;;;20.00;12.63;;;3.90;99.90;;;;;;5042315;28;20192;-85
2021/03/05 07:55:09;;;;;;;19.45;12.75;;;4.20;99.90;;;;;;5040380;28;20220;-85
2021/03/05 07:57:46;;;;;;;16.10;11.50;;;4.00;99.90;;;;;;5040431;28;20200;-86
2021/03/05 08:00:16;;;;;;;19.27;13.15;;;3.90;99.90;;;;;;5040269;28;20259;-86
2021/03/05 08:02:54;;;;;;;18.83;11.70;;;3.70;99.90;;;;;;5041397;28;20196;-86
2021/03/05 08:05:35;;;;;;;15.70;11.75;;;3.70;99.90;;;;;;5045113;28;20658;-86
2021/03/05 08:08:16;;;;;;;18.52;12.30;;;3.80;99.90;;;;;;5060391;28;20275;-85
2021/03/05 08:10:45;;;;;;;20.27;13.10;;;3.80;99.90;;;;;;5051301;28;20200;-86
2021/03/05 08:14:05;;;;;;;18.33;12.27;;;3.70;99.90;;;;;;5050736;28;20200;-87
2021/03/05 08:16:39;;;;;;;20.65;13.10;;;3.40;99.90;;;;;;5075824;28;20199;-86
2021/03/05 08:19:46;;;;;;;22.45;13.27;;;3.40;99.90;;;;;;5063764;28;20205;-85
2021/03/05 08:22:14;;;;;;;16.33;11.38;;;3.50;99.90;;;;;;5066842;28;20227;-86
2021/03/05 08:24:41;;;;;;;22.77;13.10;;;3.50;99.90;;;;;;5079462;28;20215;-86
2021/03/05 08:27:11;;;;;;;17.90;11.35;;;3.80;99.90;;;;;;5078392;28;20203;-86
2021/03/05 08:30:00;;;;;;;18.55;13.35;;;3.90;99.90;;;;;;5045772;28;20256;-85
2021/03/05 08:32:57;;;;;;;20.73;11.98;;;3.60;99.90;;;;;;5070858;28;20199;-85
2021/03/05 08:35:46;;;;;;;18.52;11.80;;;3.80;99.90;;;;;;5056388;28;20215;-85
2021/03/05 08:38:17;;;;;;;15.98;10.80;;;3.90;99.90;;;;;;5075627;28;20284;-86
2021/03/05 08:40:56;;;;;;;19.23;11.73;;;4.10;99.90;;;;;;5065934;28;20203;-84
2021/03/05 08:43:25;;;;;;;17.67;11.80;;;3.90;99.90;;;;;;5068976;28;20257;-86
2021/03/05 08:45:53;;;;;;;16.20;10.80;;;3.80;99.90;;;;;;5066859;28;20212;-85
2021/03/05 08:48:30;;;;;;;15.68;10.10;;;3.90;99.90;;;;;;5060302;28;20208;-86
2021/03/05 08:51:05;;;;;;;14.95;11.52;;;3.70;99.90;;;;;;5039133;28;20247;-86
2021/03/05 08:53:41;;;;;;;17.40;12.27;;;3.90;99.90;;;;;;5039656;28;20204;-86
2021/03/05 08:56:09;;;;;;;19.10;11.43;;;3.90;99.90;;;;;;5034585;28;20293;-84
2021/03/05 08:58:36;;;;;;;18.50;10.50;;;4.10;99.90;;;;;;5052762;28;20207;-85
2021/03/05 09:01:02;;;;;;;17.67;11.02;;;4.00;99.90;;;;;;5055403;28;20204;-85
2021/03/05 09:03:29;;;;;;;19.13;11.70;;;4.00;99.90;;;;;;5056052;28;20660;-85
2021/03/05 09:05:56;;;;;;;14.65;10.30;;;3.90;99.90;;;;;;5039020;28;20242;-85
2021/03/05 09:08:26;;;;;;;14.80;9.90;;;3.70;99.90;;;;;;5044207;28;20563;-85
2021/03/05 09:10:58;;;;;;;15.00;9.68;;;3.80;99.90;;;;;;5056563;28;20200;-86
2021/03/05 09:13:34;;;;;;;17.33;10.80;;;3.50;99.90;;;;;;5037312;28;20509;-86
2021/03/05 09:16:04;;;;;;;14.70;9.40;;;3.90;99.90;;;;;;5046372;28;20216;-85
2021/03/05 09:18:40;;;;;;;15.73;10.35;;;3.80;99.90;;;;;;5050780;28;20280;-85
2021/03/05 09:21:09;;;;;;;14.43;10.88;;;3.90;99.90;;;;;;5036945;28;20206;-87
2021/03/05 09:23:37;;;;;;;15.10;10.35;;;4.50;99.90;;;;;;5074775;28;20257;-86
2021/03/05 09:26:08;;;;;;;16.02;10.35;;;4.60;98.90;;;;;;5044411;28;20196;-86
2021/03/05 09:28:39;;;;;;;14.73;9.90;;;4.70;99.20;;;;;;5056676;28;20673;-86
2021/03/05 09:31:07;;;;;;;17.65;10.05;;;4.50;97.90;;;;;;5055933;28;20216;-85
2021/03/05 09:33:40;;;;;;;17.95;10.98;;;4.20;98.60;;;;;;5056402;28;20211;-85
2021/03/05 09:36:08;;;;;;;19.15;10.15;;;4.10;99.40;;;;;;5038218;28;20217;-86
2021/03/05 09:38:37;;;;;;;15.77;10.27;;;4.10;99.20;;;;;;5038154;28;20247;-86
2021/03/05 09:41:18;;;;;;;15.05;9.13;;;4.20;99.40;;;;;;5056833;28;20208;-86
2021/03/05 09:43:45;;;;;;;16.00;10.45;;;4.40;99.40;;;;;;5054677;28;20303;-85
2021/03/05 09:46:17;;;;;;;14.73;10.52;;;4.50;99.20;;;;;;5037447;28;20208;-85
2021/03/05 09:48:44;;;;;;;15.80;9.90;;;4.40;97.80;;;;;;5049868;28;20650;-87
2021/03/05 09:51:12;;;;;;;15.85;9.52;;;4.50;98.10;;;;;;5056738;28;20200;-86
2021/03/05 09:53:40;;;;;;;16.08;9.20;;;4.70;97.80;;;;;;5041776;28;20212;-86
2021/03/05 09:56:08;;;;;;;14.85;8.90;;;4.70;97.40;;;;;;5040256;28;20218;-86
2021/03/05 09:58:35;;;;;;;14.45;10.45;;;4.50;96.80;;;;;;5057160;28;20215;-86
2021/03/05 10:01:01;;;;;;;15.77;9.75;;;4.90;97.30;;;;;;5054602;28;20675;-86
2021/03/05 10:03:29;;;;;;;19.80;10.48;;;5.30;97.00;;;;;;5037756;28;20204;-86
2021/03/05 10:05:59;;;;;;;10.32;8.73;;;5.50;96.10;;;;;;5038271;28;20200;-86
2021/03/05 10:08:40;;;;;;;13.45;9.82;;;5.70;95.40;;;;;;5037817;28;20247;-87
2021/03/05 10:11:10;;;;;;;10.27;8.43;;;5.40;94.90;;;;;;5038264;28;20200;-86
2021/03/05 10:13:50;;;;;;;12.85;9.00;;;5.10;95.10;;;;;;5037062;28;20304;-86
2021/03/05 10:16:21;;;;;;;13.05;9.15;;;5.10;95.70;;;;;;5037612;28;20227;-86
2021/03/05 10:18:50;;;;;;;14.25;9.18;;;5.50;96.00;;;;;;5060164;28;20210;-86
2021/03/05 10:21:18;;;;;;;14.07;9.02;;;5.80;95.40;;;;;;5058821;28;20591;-86
2021/03/05 10:23:46;;;;;;;14.50;9.05;;;5.60;94.20;;;;;;5077332;28;20234;-86
2021/03/05 10:26:17;;;;;;;14.50;9.00;;;5.40;94.30;;;;;;5059896;28;20638;-86
2021/03/05 10:28:45;;;;;;;14.70;9.70;;;4.80;93.90;;;;;;5055150;28;20214;-86
2021/03/05 10:31:14;;;;;;;12.35;9.02;;;4.90;95.10;;;;;;5036965;28;20197;-86
2021/03/05 10:33:43;;;;;;;15.18;9.63;;;5.20;95.10;;;;;;5037704;28;20204;-86
2021/03/05 10:36:11;;;;;;;12.85;8.45;;;5.30;94.60;;;;;;5056518;28;20216;-86
2021/03/05 10:38:39;;;;;;;15.10;9.43;;;5.10;94.20;;;;;;5044277;28;20208;-86
2021/03/05 10:41:06;;;;;;;13.38;9.02;;;4.80;94.10;;;;;;5036414;28;20642;-86
2021/03/05 10:43:35;;;;;;;15.82;8.30;;;5.10;95.00;;;;;;5046534;28;20199;-86
2021/03/05 10:46:02;;;;;;;10.43;7.38;;;4.90;94.90;;;;;;5056486;28;20553;-86
2021/03/05 10:48:29;;;;;;;13.30;9.27;;;5.10;94.80;;;;;;5054757;28;20192;-86
2021/03/05 10:50:55;;;;;;;12.93;8.55;;;5.10;94.70;;;;;;5056344;28;20223;-86
2021/03/05 10:53:22;;;;;;;12.13;8.82;;;5.30;93.80;;;;;;5047844;28;20193;-87
2021/03/05 10:55:50;;;;;;;11.77;8.50;;;4.90;93.20;;;;;;5048612;28;20212;-86
2021/03/05 10:58:19;;;;;;;15.63;9.02;;;4.70;94.30;;;;;;5036270;28;20235;-86
2021/03/05 11:00:46;;;;;;;11.68;7.80;;;4.80;95.10;;;;;;5054724;28;20202;-86
2021/03/05 11:03:16;;;;;;;13.73;8.57;;;4.50;95.00;;;;;;5054620;28;20204;-86
2021/03/05 11:05:50;;;;;;;16.92;9.57;;;4.70;95.10;;;;;;5055877;28;20393;-85
2021/03/05 11:08:20;;;;;;;12.85;8.85;;;4.70;94.50;;;;;;5040024;28;20720;-86
2021/03/05 11:10:49;;;;;;;14.07;9.20;;;4.90;95.10;;;;;;5042338;28;20613;-86
2021/03/05 11:13:15;;;;;;;14.23;9.45;;;5.30;94.40;;;;;;5055833;28;20602;-86
2021/03/05 11:15:42;;;;;;;14.43;10.15;;;5.30;93.60;;;;;;5038983;28;20592;-86
2021/03/05 11:18:09;;;;;;;12.95;8.98;;;5.20;93.30;;;;;;5042026;28;20220;-86
2021/03/05 11:20:36;;;;;;;13.60;9.40;;;4.90;93.70;;;;;;5056429;28;20208;-85
2021/03/05 11:23:02;;;;;;;13.43;9.40;;;5.20;94.40;;;;;;5058880;28;20302;-86
2021/03/05 11:25:29;;;;;;;15.20;9.70;;;5.70;94.20;;;;;;5053979;28;20719;-86
2021/03/05 11:27:57;;;;;;;13.80;9.30;;;5.50;92.70;;;;;;5052931;28;20208;-87
2021/03/05 11:30:24;;;;;;;14.35;9.57;;;5.50;92.60;;;;;;5035506;28;20197;-87
2021/03/05 11:32:50;;;;;;;13.32;9.10;;;6.00;93.20;;;;;;5045380;28;20203;-86
2021/03/05 11:35:17;;;;;;;13.73;9.85;;;5.80;92.00;;;;;;5060676;28;20268;-86
2021/03/05 11:37:43;;;;;;;15.25;9.02;;;5.70;91.30;;;;;;5044696;28;20200;-86
2021/03/05 11:40:12;;;;;;;13.88;9.35;;;5.30;92.10;;;;;;5065972;28;20200;-86
2021/03/05 11:42:38;;;;;;;12.43;8.95;;;5.40;92.40;;;;;;5058514;28;21096;-86
2021/03/05 11:45:08;;;;;;;15.20;10.73;;;5.10;91.60;;;;;;5070471;28;20731;-86
2021/03/05 11:47:34;;;;;;;13.93;9.27;;;5.20;92.30;;;;;;5059749;28;20211;-86
2021/03/05 11:50:01;;;;;;;14.02;10.15;;;5.00;93.00;;;;;;5069952;28;20286;-86
2021/03/05 11:52:28;;;;;;;14.75;9.02;;;5.00;93.40;;;;;;5075191;28;20244;-87
2021/03/05 11:54:56;;;;;;;13.63;9.73;;;5.40;93.60;;;;;;5061489;28;20727;-87
2021/03/05 11:57:23;;;;;;;11.85;9.35;;;5.70;93.40;;;;;;5049652;28;20221;-86
2021/03/05 11:59:49;;;;;;;13.10;9.18;;;5.80;92.30;;;;;;5068216;28;20602;-87
2021/03/05 12:02:17;;;;;;;17.35;9.43;;;5.40;91.00;;;;;;5066911;28;20200;-86
2021/03/05 12:04:46;;;;;;;14.60;8.95;;;5.10;91.50;;;;;;5058291;28;20241;-87
2021/03/05 12:07:15;;;;;;;13.80;9.60;;;5.30;92.00;;;;;;5062370;28;20200;-87
2021/03/05 12:09:44;;;;;;;13.20;8.93;;;5.50;92.00;;;;;;5067308;28;20198;-86
2021/03/05 12:12:16;;;;;;;14.02;10.13;;;5.90;91.70;;;;;;5063876;28;20735;-87
2021/03/05 12:14:46;;;;;;;20.00;9.85;;;5.70;91.20;;;;;;5056288;28;20310;-86
2021/03/05 12:17:14;;;;;;;16.88;9.80;;;5.70;91.20;;;;;;5049532;28;20220;-88
2021/03/05 12:19:41;;;;;;;14.18;8.70;;;5.80;91.60;;;;;;5032751;28;20209;-87
2021/03/05 12:22:11;;;;;;;15.50;11.13;;;5.90;91.70;;;;;;5042469;28;20207;-87
2021/03/05 12:24:37;;;;;;;12.70;9.40;;;5.70;91.10;;;;;;5049676;28;20217;-86
2021/03/05 12:27:05;;;;;;;13.38;9.80;;;5.80;90.90;;;;;;5048881;28;20208;-87
2021/03/05 12:29:32;;;;;;;17.48;10.10;;;5.80;90.50;;;;;;5032191;28;20208;-86
2021/03/05 12:32:02;;;;;;;16.33;9.10;;;5.60;90.10;;;;;;5035048;28;20216;-87
2021/03/05 12:34:28;;;;;;;12.65;9.32;;;5.20;91.00;;;;;;5033592;28;20211;-87
2021/03/05 12:36:55;;;;;;;12.75;9.20;;;5.60;91.40;;;;;;5051522;28;20204;-86
2021/03/05 12:39:22;;;;;;;13.07;9.25;;;5.20;91.10;;;;;;5053377;28;20242;-86
2021/03/05 12:41:48;;;;;;;15.88;10.70;;;5.30;90.90;;;;;;5037261;28;20646;-86
2021/03/05 12:44:15;;;;;;;14.43;9.75;;;5.40;91.20;;;;;;5033923;28;20219;-86
2021/03/05 12:46:41;;;;;;;13.82;9.93;;;5.20;91.00;;;;;;5048143;28;20200;-86
2021/03/05 12:49:08;;;;;;;13.77;9.85;;;5.30;91.30;;;;;;5051720;28;20204;-86